Time;durP1;ratioP1;P1;durP2;ratioP2;P2;SDS_P1;SDS_P2;PMS_P1;PMS_P2;Temp;Humidity;BMP_temperature;BMP_pressure;BME280_temperature;BME280_humidity;BME280_pressure;Samples;Min_cycle;Max_cycle;Signal;HPM_P1;HPM_P2
2023/05/18 00:02:06;;;;;;;0.87;0.80;;;10.50;70.20;10.10;101513.00;;;;4948105;28;87699;-70
2023/05/18 00:04:33;;;;;;;4.83;1.50;;;10.10;70.00;10.10;101525.00;;;;4951056;28;87984;-70
2023/05/18 00:07:03;;;;;;;2.67;1.20;;;10.10;70.10;10.10;101521.00;;;;4947623;28;88919;-70
2023/05/18 00:09:31;;;;;;;1.43;1.03;;;10.10;70.10;10.10;101523.00;;;;4948269;28;88022;-70
2023/05/18 00:11:58;;;;;;;1.30;0.70;;;10.20;70.30;10.10;101529.00;;;;4948663;28;87669;-69
2023/05/18 00:14:24;;;;;;;1.40;0.90;;;10.10;70.30;10.10;101529.00;;;;4946225;28;87182;-69
2023/05/18 00:16:52;;;;;;;3.63;1.07;;;10.20;70.40;10.10;101532.00;;;;4945610;28;108548;-70
2023/05/18 00:19:19;;;;;;;1.30;1.13;;;10.10;70.50;10.10;101534.00;;;;4951342;28;88135;-71
2023/05/18 00:21:46;;;;;;;5.90;1.40;;;10.40;70.90;10.10;101532.00;;;;4949796;28;88563;-70
2023/05/18 00:24:13;;;;;;;3.77;1.30;;;10.20;70.90;10.10;101537.00;;;;4946764;28;88137;-70
2023/05/18 00:26:44;;;;;;;1.30;0.87;;;10.10;71.00;10.10;101534.00;;;;4946691;28;92049;-71
2023/05/18 00:29:11;;;;;;;3.50;1.00;;;10.10;71.20;10.10;101535.00;;;;4950763;28;87975;-71
2023/05/18 00:31:41;;;;;;;1.60;0.93;;;10.10;71.50;10.10;101543.00;;;;4945047;28;87761;-71
2023/05/18 00:34:08;;;;;;;3.80;0.87;;;10.10;71.80;10.10;101543.00;;;;4948417;28;88325;-71
2023/05/18 00:36:35;;;;;;;3.60;1.03;;;10.10;72.00;10.10;101529.00;;;;4947338;28;110480;-71
2023/05/18 00:39:02;;;;;;;6.40;1.57;;;10.10;72.00;10.00;101546.00;;;;4946907;28;88239;-70
2023/05/18 00:41:28;;;;;;;0.97;0.87;;;10.10;72.20;10.00;101542.00;;;;4946740;28;88052;-70
2023/05/18 00:43:55;;;;;;;1.07;0.80;;;10.10;72.40;10.00;101544.00;;;;4944650;28;109642;-70
2023/05/18 00:46:25;;;;;;;3.67;1.00;;;10.00;72.60;10.00;101547.00;;;;4945335;28;88941;-70
2023/05/18 00:48:52;;;;;;;1.10;0.67;;;10.00;72.80;10.00;101548.00;;;;4946713;28;109644;-69
2023/05/18 00:51:22;;;;;;;1.37;0.63;;;10.00;73.00;10.00;101550.00;;;;4944926;28;88027;-69
2023/05/18 00:53:48;;;;;;;1.77;1.07;;;10.00;73.30;9.90;101555.00;;;;4952214;28;88786;-70
2023/05/18 00:56:15;;;;;;;1.97;1.10;;;10.00;73.50;9.90;101553.00;;;;4943828;28;88357;-70
2023/05/18 00:58:41;;;;;;;1.20;0.93;;;10.00;73.60;9.90;101561.00;;;;4946313;28;89196;-70
2023/05/18 01:01:08;;;;;;;0.80;0.80;;;10.00;73.90;9.90;101557.00;;;;4943963;28;110090;-69
2023/05/18 01:03:37;;;;;;;0.80;0.80;;;9.90;74.00;9.80;101553.00;;;;4947849;28;87172;-69
2023/05/18 01:06:07;;;;;;;0.83;0.80;;;9.90;74.30;9.80;101562.00;;;;4947117;28;88495;-71
2023/05/18 01:08:34;;;;;;;3.90;1.10;;;9.90;74.60;9.70;101563.00;;;;4946840;28;88252;-71
2023/05/18 01:11:32;;;;;;;9.23;1.50;;;9.80;74.80;9.60;101562.00;;;;4944420;28;99061;-71
2023/05/18 01:14:16;;;;;;;1.00;0.90;;;9.80;75.00;9.60;101562.00;;;;4940884;28;100524;-70
2023/05/18 01:16:54;;;;;;;2.87;1.50;;;9.80;75.40;9.60;101561.00;;;;4951001;28;88408;-71
2023/05/18 01:19:51;;;;;;;1.10;1.00;;;9.70;75.50;9.50;101559.00;;;;4951407;28;88389;-72
2023/05/18 01:22:50;;;;;;;1.73;1.27;;;9.70;75.90;9.40;101561.00;;;;4951389;28;87773;-71
2023/05/18 01:25:53;;;;;;;1.90;0.90;;;9.60;76.00;9.30;101568.00;;;;4940609;28;87745;-70
2023/05/18 01:28:25;;;;;;;0.93;0.70;;;9.50;76.50;9.30;101568.00;;;;4948155;28;87813;-71
2023/05/18 01:30:51;;;;;;;1.33;0.97;;;9.40;76.90;9.20;101574.00;;;;4953990;28;87218;-70
2023/05/18 01:33:17;;;;;;;1.73;0.80;;;9.40;77.30;9.10;101565.00;;;;4949032;28;103774;-71
2023/05/18 01:35:47;;;;;;;5.80;0.67;;;9.30;77.50;9.10;101564.00;;;;4946760;28;107852;-71
2023/05/18 01:38:20;;;;;;;1.50;0.87;;;9.20;77.90;9.10;101571.00;;;;4946544;28;89099;-71
2023/05/18 01:41:24;;;;;;;4.20;1.10;;;9.20;78.40;9.00;101573.00;;;;4952095;28;88037;-70
2023/05/18 01:44:25;;;;;;;0.80;0.80;;;9.20;78.80;9.00;101566.00;;;;4954735;28;88136;-70
2023/05/18 01:47:14;;;;;;;1.07;0.70;;;9.10;79.10;8.90;101567.00;;;;4962503;28;87994;-70
2023/05/18 01:49:47;;;;;;;1.27;0.67;;;9.10;79.70;8.90;101572.00;;;;4953201;28;87889;-71
2023/05/18 01:52:22;;;;;;;1.37;0.90;;;9.00;80.20;8.90;101578.00;;;;4955025;28;88121;-70
2023/05/18 01:54:55;;;;;;;1.20;1.03;;;9.00;80.60;8.80;101579.00;;;;4954201;28;104026;-70
2023/05/18 01:57:25;;;;;;;2.90;1.20;;;9.00;81.00;8.70;101580.00;;;;4951318;28;101634;-70
2023/05/18 01:59:50;;;;;;;2.77;2.07;;;8.80;81.30;8.50;101579.00;;;;4953432;28;88737;-70
2023/05/18 02:02:16;;;;;;;6.50;2.63;;;8.70;81.90;8.40;101590.00;;;;4947524;28;104299;-70
2023/05/18 02:04:42;;;;;;;5.57;2.77;;;8.60;82.60;8.20;101587.00;;;;4947362;28;88905;-70
2023/05/18 02:07:08;;;;;;;4.10;2.03;;;8.40;83.40;8.10;101572.00;;;;4947954;28;108450;-70
2023/05/18 02:09:34;;;;;;;3.70;2.30;;;8.30;84.20;8.00;101571.00;;;;4948838;28;116775;-70
2023/05/18 02:11:59;;;;;;;2.53;2.03;;;8.20;85.10;8.00;101573.00;;;;4947898;28;88937;-71
2023/05/18 02:14:25;;;;;;;4.73;2.23;;;8.20;85.80;7.90;101577.00;;;;4947526;28;110045;-70
2023/05/18 02:16:53;;;;;;;4.93;2.70;;;8.00;86.40;7.70;101573.00;;;;4947550;28;87654;-70
2023/05/18 02:19:20;;;;;;;2.57;2.30;;;8.00;87.30;7.70;101578.00;;;;4948805;28;89228;-70
2023/05/18 02:21:49;;;;;;;2.03;1.43;;;7.90;88.20;7.70;101581.00;;;;4949765;28;88288;-70
2023/05/18 02:24:16;;;;;;;7.03;2.03;;;7.90;89.00;7.70;101573.00;;;;4948473;28;110415;-70
2023/05/18 02:26:42;;;;;;;2.90;1.97;;;7.80;89.60;7.60;101566.00;;;;4947647;28;87864;-71
2023/05/18 02:29:10;;;;;;;3.67;1.67;;;7.80;90.10;7.60;101578.00;;;;4944863;28;119294;-70
2023/05/18 02:31:37;;;;;;;1.73;1.60;;;7.80;90.30;7.60;101575.00;;;;4949590;28;89379;-70
2023/05/18 02:34:03;;;;;;;3.27;1.73;;;7.70;90.50;7.60;101571.00;;;;4948247;28;87798;-70
2023/05/18 02:36:41;;;;;;;2.00;1.33;;;8.00;90.90;7.50;101577.00;;;;4946108;28;108645;-70
2023/05/18 02:39:08;;;;;;;2.50;2.10;;;7.70;91.00;7.50;101588.00;;;;4948730;28;87897;-71
2023/05/18 02:41:35;;;;;;;1.90;1.00;;;7.70;91.30;7.40;101580.00;;;;4949567;28;88534;-70
2023/05/18 02:44:04;;;;;;;1.13;0.97;;;7.70;91.50;7.40;101574.00;;;;4951733;28;87825;-70
2023/05/18 02:46:30;;;;;;;1.90;1.30;;;7.70;91.70;7.40;101582.00;;;;4947823;28;87021;-70
2023/05/18 02:48:57;;;;;;;4.40;2.00;;;7.60;92.00;7.40;101595.00;;;;4948213;28;88856;-71
2023/05/18 02:51:22;;;;;;;3.27;1.10;;;7.50;92.20;7.30;101592.00;;;;4949521;28;91833;-70
2023/05/18 02:53:50;;;;;;;3.17;1.33;;;7.60;92.40;7.30;101587.00;;;;4944534;28;110661;-70
2023/05/18 02:56:16;;;;;;;3.17;1.20;;;7.50;92.70;7.30;101596.00;;;;4945883;28;87892;-70
2023/05/18 02:58:42;;;;;;;1.93;1.47;;;7.90;93.10;7.20;101602.00;;;;4946274;28;88904;-70
2023/05/18 03:01:11;;;;;;;1.70;1.13;;;7.60;93.30;7.10;101594.00;;;;4946984;28;89411;-70
2023/05/18 03:03:38;;;;;;;3.17;1.37;;;7.70;93.50;7.00;101596.00;;;;4959274;28;88086;-71
2023/05/18 03:06:04;;;;;;;0.90;0.63;;;7.30;93.70;7.00;101608.00;;;;4971678;28;96514;-70
2023/05/18 03:08:30;;;;;;;3.87;1.23;;;7.20;94.00;6.90;101604.00;;;;4966650;28;88739;-70
2023/05/18 03:10:57;;;;;;;1.30;1.20;;;7.60;94.40;6.90;101612.00;;;;4965357;28;107530;-70
2023/05/18 03:13:24;;;;;;;3.47;1.50;;;7.10;94.70;6.90;101612.00;;;;4966498;28;87924;-70
2023/05/18 03:15:50;;;;;;;0.70;0.70;;;7.00;95.00;6.80;101613.00;;;;4964915;28;87943;-70
2023/05/18 03:18:17;;;;;;;1.70;1.17;;;7.20;95.20;6.80;101605.00;;;;4965491;28;90019;-70
2023/05/18 03:20:44;;;;;;;4.23;1.63;;;7.50;95.70;6.80;101608.00;;;;4967671;28;89874;-70
2023/05/18 03:23:09;;;;;;;3.37;1.50;;;7.40;95.80;6.70;101609.00;;;;4966149;28;92307;-70
2023/05/18 03:25:36;;;;;;;1.67;1.43;;;6.90;96.00;6.70;101627.00;;;;4966672;28;87955;-70
2023/05/18 03:28:03;;;;;;;1.17;0.87;;;6.60;96.20;6.70;101626.00;;;;4964704;28;89188;-70
2023/05/18 03:30:33;;;;;;;2.57;1.43;;;6.90;96.60;6.70;101618.00;;;;4965187;28;89191;-70
2023/05/18 03:33:00;;;;;;;2.33;1.33;;;7.20;97.00;6.70;101626.00;;;;4966870;28;87871;-70
2023/05/18 03:35:29;;;;;;;1.63;1.50;;;6.80;97.10;6.70;101627.00;;;;4968871;28;87200;-69
2023/05/18 03:37:55;;;;;;;3.40;1.73;;;6.90;97.40;6.70;101633.00;;;;4967726;28;88146;-69
2023/05/18 03:40:21;;;;;;;5.37;1.93;;;6.90;97.60;6.60;101630.00;;;;4968045;28;105256;-70
2023/05/18 03:42:47;;;;;;;2.10;1.60;;;6.80;97.60;6.60;101625.00;;;;4965298;28;88836;-70
2023/05/18 03:45:12;;;;;;;3.67;2.27;;;7.00;97.90;6.50;101628.00;;;;4967193;28;87622;-70
2023/05/18 03:47:38;;;;;;;4.50;1.87;;;6.70;98.00;6.50;101633.00;;;;4967760;28;111174;-70
2023/05/18 03:50:06;;;;;;;5.87;2.47;;;6.70;98.10;6.40;101622.00;;;;4966505;28;88397;-70
2023/05/18 03:52:33;;;;;;;2.93;2.27;;;6.60;98.40;6.40;101637.00;;;;4967049;28;88008;-70
2023/05/18 03:55:03;;;;;;;4.90;2.90;;;6.60;98.60;6.40;101625.00;;;;4965050;28;87855;-70
2023/05/18 03:57:28;;;;;;;3.53;1.93;;;6.60;98.90;6.40;101633.00;;;;4966120;28;92377;-70
2023/05/18 03:59:55;;;;;;;2.50;1.60;;;6.60;99.10;6.40;101634.00;;;;4964746;28;87869;-70
2023/05/18 04:02:27;;;;;;;2.33;1.57;;;6.60;99.30;6.40;101634.00;;;;4968563;28;87727;-70
2023/05/18 04:04:52;;;;;;;3.20;1.97;;;6.90;99.70;6.40;101640.00;;;;4966043;28;96119;-70
2023/05/18 04:07:23;;;;;;;2.20;1.90;;;6.80;99.80;6.50;101640.00;;;;4967270;28;119355;-70
2023/05/18 04:09:52;;;;;;;5.30;1.27;;;6.60;99.90;6.50;101639.00;;;;4965890;28;88749;-70
2023/05/18 04:12:18;;;;;;;2.23;1.30;;;6.70;99.90;6.50;101633.00;;;;4965328;28;94949;-70
2023/05/18 04:14:48;;;;;;;1.47;1.17;;;6.70;99.90;6.50;101635.00;;;;4963945;28;109311;-70
2023/05/18 04:17:21;;;;;;;3.00;1.67;;;6.70;99.90;6.60;101637.00;;;;4965086;28;89146;-70
2023/05/18 04:19:48;;;;;;;3.37;1.10;;;6.70;99.90;6.60;101640.00;;;;4949987;28;87830;-70
2023/05/18 04:22:15;;;;;;;2.57;1.33;;;6.80;99.90;6.70;101637.00;;;;4945670;28;87927;-70
2023/05/18 04:24:41;;;;;;;2.73;1.37;;;6.80;99.90;6.70;101637.00;;;;4945731;28;107884;-70
2023/05/18 04:27:08;;;;;;;13.03;1.40;;;7.10;99.90;6.80;101642.00;;;;4958003;28;88055;-70
2023/05/18 04:29:37;;;;;;;4.73;0.90;;;7.40;99.90;6.90;101646.00;;;;4945393;28;88621;-70
2023/05/18 04:32:06;;;;;;;3.27;1.67;;;7.20;99.90;7.10;101644.00;;;;4945933;28;89098;-69
2023/05/18 04:34:36;;;;;;;9.73;1.30;;;7.20;99.90;7.20;101649.00;;;;4946138;28;88153;-70
2023/05/18 04:37:05;;;;;;;9.30;1.33;;;7.30;99.90;7.30;101637.00;;;;4947670;28;88431;-69
2023/05/18 04:39:34;;;;;;;1.60;1.50;;;7.40;99.90;7.40;101649.00;;;;4948063;28;88766;-69
2023/05/18 04:42:03;;;;;;;1.97;1.30;;;7.80;99.90;7.60;101648.00;;;;4941561;28;88040;-70
2023/05/18 04:44:33;;;;;;;1.47;0.90;;;7.60;99.90;7.70;101660.00;;;;4948213;28;88416;-70
2023/05/18 04:46:58;;;;;;;5.00;0.70;;;7.80;99.90;7.90;101664.00;;;;4942098;28;88782;-70
2023/05/18 04:49:25;;;;;;;2.37;1.17;;;8.00;99.90;8.00;101667.00;;;;4943100;28;108943;-71
2023/05/18 04:51:55;;;;;;;4.70;0.90;;;8.10;99.90;8.10;101668.00;;;;4943812;28;88194;-70
2023/05/18 04:54:27;;;;;;;2.80;1.53;;;8.20;99.90;8.30;101667.00;;;;4941338;28;87713;-70
2023/05/18 04:56:53;;;;;;;1.23;1.13;;;8.40;99.90;8.50;101671.00;;;;4947140;28;88954;-70
2023/05/18 04:59:19;;;;;;;2.33;1.23;;;8.50;99.90;8.70;101669.00;;;;4942050;28;90378;-70
2023/05/18 05:01:45;;;;;;;3.30;1.90;;;8.70;99.90;8.80;101670.00;;;;4942782;28;88324;-70
2023/05/18 05:04:11;;;;;;;1.97;1.17;;;8.90;99.90;9.00;101678.00;;;;4940978;28;88053;-70
2023/05/18 05:06:37;;;;;;;1.33;0.70;;;9.00;99.90;9.20;101677.00;;;;4946037;28;88130;-70
2023/05/18 05:09:03;;;;;;;1.23;0.97;;;9.20;99.90;9.40;101675.00;;;;4940985;28;117323;-70
2023/05/18 05:11:29;;;;;;;2.23;0.70;;;9.40;99.60;9.60;101675.00;;;;4945188;28;87754;-70
2023/05/18 05:13:55;;;;;;;1.07;1.00;;;9.60;99.40;9.80;101672.00;;;;4942858;28;88557;-70
2023/05/18 05:16:20;;;;;;;2.73;0.90;;;9.70;99.10;10.00;101676.00;;;;4940741;28;117726;-72
2023/05/18 05:18:46;;;;;;;1.17;1.00;;;10.20;98.90;10.10;101675.00;;;;4940691;28;115597;-71
2023/05/18 05:21:12;;;;;;;0.93;0.70;;;10.10;98.30;10.30;101683.00;;;;4940061;28;110387;-71
2023/05/18 05:23:37;;;;;;;1.70;1.17;;;10.20;97.90;10.50;101689.00;;;;4943361;28;108021;-70
2023/05/18 05:26:03;;;;;;;7.87;1.00;;;10.40;97.30;10.70;101693.00;;;;4945094;28;88022;-70
2023/05/18 05:28:29;;;;;;;1.90;1.00;;;10.60;97.00;10.90;101688.00;;;;4941326;28;98259;-71
2023/05/18 05:30:55;;;;;;;4.50;1.53;;;10.80;96.50;11.10;101688.00;;;;4944821;28;87588;-72
2023/05/18 05:33:20;;;;;;;1.63;0.80;;;12.20;96.40;11.30;101686.00;;;;4941641;28;108018;-72
2023/05/18 05:35:46;;;;;;;2.30;1.40;;;11.30;95.60;11.60;101688.00;;;;4942442;28;118082;-70
2023/05/18 05:38:12;;;;;;;1.50;1.13;;;11.50;95.10;11.80;101699.00;;;;4941553;28;89215;-70
2023/05/18 05:40:37;;;;;;;1.73;1.20;;;11.70;94.40;12.00;101689.00;;;;4940731;28;105944;-70
2023/05/18 05:43:05;;;;;;;2.10;0.80;;;12.00;93.20;12.20;101692.00;;;;4943202;28;87847;-70
2023/05/18 05:45:30;;;;;;;8.40;1.97;;;12.10;92.60;12.40;101696.00;;;;4941433;28;88966;-70
2023/05/18 05:47:59;;;;;;;1.53;1.00;;;12.30;91.80;12.60;101695.00;;;;4942717;28;97901;-71
2023/05/18 05:50:26;;;;;;;5.40;1.30;;;12.50;90.90;12.70;101693.00;;;;4941009;28;97641;-70
2023/05/18 05:52:52;;;;;;;3.77;1.13;;;12.60;90.20;12.90;101695.00;;;;4943210;28;88933;-70
2023/05/18 05:55:18;;;;;;;2.03;1.20;;;12.80;89.80;13.00;101695.00;;;;4942294;28;110352;-69
2023/05/18 05:57:43;;;;;;;2.67;0.77;;;13.00;88.30;13.10;101711.00;;;;4941757;28;117899;-70
2023/05/18 06:00:11;;;;;;;5.70;0.70;;;13.00;87.50;13.20;101708.00;;;;4942721;28;109797;-69
2023/05/18 06:02:38;;;;;;;3.23;0.93;;;13.10;87.00;13.20;101708.00;;;;4942993;28;87315;-71
2023/05/18 06:05:10;;;;;;;4.13;1.40;;;13.20;85.90;13.20;101698.00;;;;4944625;28;88704;-70
2023/05/18 06:07:36;;;;;;;1.03;0.73;;;13.30;84.10;13.20;101711.00;;;;4942155;28;88009;-70
2023/05/18 06:10:02;;;;;;;3.00;1.20;;;13.20;82.90;13.30;101705.00;;;;4941066;28;89410;-70
2023/05/18 06:12:28;;;;;;;0.63;0.53;;;13.30;83.10;13.40;101701.00;;;;4942831;28;88030;-70
2023/05/18 06:14:57;;;;;;;0.80;0.80;;;13.30;82.70;13.50;101695.00;;;;4939598;28;118529;-70
2023/05/18 06:17:27;;;;;;;0.80;0.80;;;13.40;82.10;13.60;101709.00;;;;4941063;28;88725;-69
2023/05/18 06:19:53;;;;;;;1.37;1.23;;;13.50;81.60;13.60;101705.00;;;;4946817;28;87878;-69
2023/05/18 06:22:19;;;;;;;2.03;0.80;;;13.60;81.20;13.70;101711.00;;;;4937133;28;87823;-70
2023/05/18 06:24:45;;;;;;;1.13;0.70;;;13.60;81.00;13.80;101707.00;;;;4961609;28;118331;-70
2023/05/18 06:27:11;;;;;;;1.20;1.07;;;13.70;80.60;13.90;101701.00;;;;4962840;28;88455;-69
2023/05/18 06:29:36;;;;;;;4.00;0.80;;;13.80;79.80;14.00;101709.00;;;;4964316;28;87879;-70
2023/05/18 06:32:03;;;;;;;1.60;1.17;;;13.90;78.70;14.00;101715.00;;;;4964486;28;87898;-69
2023/05/18 06:34:31;;;;;;;3.47;1.23;;;14.00;76.30;14.00;101700.00;;;;4963781;28;106858;-70
2023/05/18 06:36:57;;;;;;;0.70;0.70;;;14.00;75.20;14.10;101719.00;;;;4961258;28;116409;-71
2023/05/18 06:39:23;;;;;;;1.93;1.47;;;14.10;75.60;14.30;101711.00;;;;4963832;28;87845;-72
2023/05/18 06:41:50;;;;;;;2.87;0.53;;;14.20;73.60;14.40;101714.00;;;;4966156;28;87733;-69
2023/05/18 06:44:16;;;;;;;1.50;0.53;;;14.30;73.00;14.50;101718.00;;;;4963595;28;88992;-70
2023/05/18 06:46:42;;;;;;;3.53;0.90;;;14.40;72.80;14.60;101720.00;;;;4963915;28;118075;-70
2023/05/18 06:49:29;;;;;;;3.08;1.00;;;14.50;71.40;14.70;101713.00;;;;4954512;28;88166;-70
2023/05/18 06:51:55;;;;;;;5.20;2.00;;;14.70;68.10;14.70;101713.00;;;;4947856;28;87169;-72
2023/05/18 06:54:21;;;;;;;4.80;0.90;;;14.70;67.80;14.80;101716.00;;;;4943799;28;117931;-72
2023/05/18 06:56:46;;;;;;;1.10;0.77;;;14.70;66.40;14.80;101722.00;;;;4946822;28;88839;-70
2023/05/18 06:59:12;;;;;;;4.20;0.80;;;14.70;66.70;14.90;101714.00;;;;4943561;28;88811;-71
2023/05/18 07:01:38;;;;;;;6.20;1.25;;;14.70;65.50;15.10;101717.00;;;;4944209;28;108213;-69
2023/05/18 07:04:03;;;;;;;3.72;0.77;;;14.90;65.60;15.30;101719.00;;;;4943833;28;115872;-70
2023/05/18 07:06:29;;;;;;;0.90;0.77;;;15.10;63.70;15.50;101724.00;;;;4942085;28;93567;-70
2023/05/18 07:08:55;;;;;;;1.67;1.00;;;15.30;63.70;15.70;101717.00;;;;4944325;28;87912;-71
2023/05/18 07:11:21;;;;;;;3.53;1.20;;;15.50;62.40;15.90;101728.00;;;;4944880;28;87758;-71
2023/05/18 07:13:47;;;;;;;1.35;1.02;;;15.70;61.70;16.20;101734.00;;;;4945655;28;88014;-71
2023/05/18 07:16:13;;;;;;;2.65;1.23;;;16.00;61.30;16.40;101724.00;;;;4943861;28;116968;-69
2023/05/18 07:18:40;;;;;;;2.05;1.08;;;16.20;60.80;16.70;101728.00;;;;4942257;28;110350;-72
2023/05/18 07:21:06;;;;;;;1.95;0.60;;;16.50;58.30;16.80;101728.00;;;;4945088;28;88065;-69
2023/05/18 07:23:32;;;;;;;0.75;0.40;;;16.60;57.70;16.90;101728.00;;;;4943780;28;90088;-69
2023/05/18 07:25:57;;;;;;;2.67;0.50;;;16.80;56.90;17.00;101729.00;;;;4945458;28;114686;-70
2023/05/18 07:28:23;;;;;;;1.42;0.55;;;16.90;57.00;17.30;101730.00;;;;4944853;28;110039;-70
2023/05/18 07:30:49;;;;;;;0.80;0.73;;;17.10;57.20;17.50;101729.00;;;;4942425;28;108047;-71
2023/05/18 07:33:15;;;;;;;3.25;0.77;;;17.30;56.00;17.60;101733.00;;;;4944354;28;116938;-71
2023/05/18 07:35:40;;;;;;;0.57;0.38;;;17.50;55.20;17.80;101736.00;;;;4944455;28;88128;-71
2023/05/18 07:38:06;;;;;;;0.70;0.65;;;17.60;54.90;18.00;101739.00;;;;4943255;28;108861;-71
2023/05/18 07:40:32;;;;;;;0.70;0.47;;;17.80;54.30;18.20;101742.00;;;;4944777;28;87181;-70
2023/05/18 07:42:57;;;;;;;2.67;0.80;;;18.00;53.60;18.20;101737.00;;;;4945506;28;116919;-68
2023/05/18 07:45:23;;;;;;;0.45;0.40;;;18.10;53.30;18.20;101727.00;;;;4942756;28;117879;-70
2023/05/18 07:47:49;;;;;;;0.80;0.40;;;18.20;52.80;18.10;101728.00;;;;4942734;28;109086;-71
2023/05/18 07:50:14;;;;;;;1.65;0.93;;;18.10;51.00;17.80;101740.00;;;;4940603;28;109388;-73
2023/05/18 07:52:41;;;;;;;3.47;0.88;;;17.90;51.10;17.60;101737.00;;;;4943181;28;88205;-72
2023/05/18 07:55:07;;;;;;;1.25;0.55;;;17.70;50.30;17.40;101737.00;;;;4944782;28;87990;-71
2023/05/18 07:57:34;;;;;;;2.75;1.08;;;17.50;50.30;17.30;101734.00;;;;4946040;28;89511;-69
2023/05/18 07:59:59;;;;;;;0.70;0.57;;;17.20;51.30;17.30;101737.00;;;;4942230;28;87786;-70
2023/05/18 08:02:25;;;;;;;0.50;0.32;;;17.20;51.40;17.40;101742.00;;;;4941988;28;88353;-68
2023/05/18 08:04:52;;;;;;;0.65;0.65;;;17.20;52.10;17.50;101732.00;;;;4942674;28;117092;-71
2023/05/18 08:07:17;;;;;;;0.82;0.50;;;17.30;51.40;17.60;101739.00;;;;4944528;28;87914;-70
2023/05/18 08:09:43;;;;;;;1.52;0.85;;;17.40;51.60;17.90;101735.00;;;;4944032;28;107837;-69
2023/05/18 08:12:09;;;;;;;0.80;0.50;;;17.60;50.90;18.00;101733.00;;;;4944129;28;89702;-71
2023/05/18 08:14:35;;;;;;;0.40;0.30;;;17.80;50.10;18.00;101731.00;;;;4939604;28;116458;-71
2023/05/18 08:17:03;;;;;;;0.70;0.60;;;17.80;48.70;18.00;101734.00;;;;4948006;28;88156;-70
2023/05/18 08:19:29;;;;;;;1.08;0.50;;;17.70;49.10;18.00;101721.00;;;;4941850;28;87977;-72
2023/05/18 08:21:54;;;;;;;1.42;0.60;;;17.80;48.60;17.90;101725.00;;;;4943837;28;103509;-71
2023/05/18 08:24:20;;;;;;;1.38;0.28;;;17.80;48.50;18.00;101733.00;;;;4938841;28;117407;-68
2023/05/18 08:26:45;;;;;;;3.65;1.00;;;17.80;49.60;18.30;101735.00;;;;4941782;28;109852;-71
2023/05/18 08:29:11;;;;;;;0.90;0.70;;;18.00;49.90;18.70;101728.00;;;;4940626;28;108182;-71
2023/05/18 08:31:39;;;;;;;2.78;0.50;;;18.40;49.20;19.00;101729.00;;;;4944118;28;117048;-69
2023/05/18 08:34:05;;;;;;;0.75;0.75;;;18.70;48.80;19.40;101725.00;;;;4942136;28;106435;-69
2023/05/18 08:36:33;;;;;;;5.00;0.65;;;19.00;49.00;19.80;101733.00;;;;4942236;28;89202;-71
2023/05/18 08:38:59;;;;;;;0.70;0.70;;;19.40;48.30;20.00;101726.00;;;;4942343;28;87900;-70
2023/05/18 08:41:30;;;;;;;1.30;0.35;;;19.70;46.30;20.10;101726.00;;;;4940647;28;89010;-69
2023/05/18 08:44:03;;;;;;;1.27;0.57;;;19.80;45.70;20.20;101722.00;;;;4956812;28;88097;-69
2023/05/18 08:46:41;;;;;;;1.60;0.50;;;19.90;46.00;20.20;101723.00;;;;4944476;28;88421;-69
2023/05/18 08:49:09;;;;;;;0.65;0.65;;;20.10;44.80;20.10;101728.00;;;;4942416;28;88134;-70
2023/05/18 08:51:39;;;;;;;1.45;1.00;;;20.00;43.20;19.80;101721.00;;;;4943676;28;87595;-68
2023/05/18 08:54:07;;;;;;;1.08;0.90;;;19.80;43.80;19.40;101720.00;;;;4942021;28;89086;-69
2023/05/18 08:56:33;;;;;;;1.52;1.02;;;19.40;43.90;19.40;101724.00;;;;4942311;28;89417;-69
2023/05/18 08:59:06;;;;;;;4.20;0.88;;;19.20;44.60;19.40;101719.00;;;;4939850;28;94357;-70
2023/05/18 09:01:33;;;;;;;1.98;0.75;;;19.10;44.40;19.40;101737.00;;;;4944085;28;88730;-70
2023/05/18 09:04:00;;;;;;;1.83;0.98;;;19.20;45.30;19.50;101720.00;;;;4944392;28;107855;-70
2023/05/18 09:06:27;;;;;;;0.73;0.73;;;19.30;45.30;19.70;101718.00;;;;4942898;28;87853;-68
2023/05/18 09:08:54;;;;;;;2.47;0.70;;;19.40;44.90;19.70;101721.00;;;;4940960;28;87929;-70
2023/05/18 09:11:25;;;;;;;2.25;0.63;;;19.50;45.30;19.80;101725.00;;;;4941586;28;89341;-69
2023/05/18 09:13:51;;;;;;;1.77;1.35;;;19.60;45.90;19.80;101735.00;;;;4937326;28;103024;-69
2023/05/18 09:16:20;;;;;;;1.05;0.40;;;19.60;45.10;19.70;101728.00;;;;4944634;28;87852;-69
2023/05/18 09:18:45;;;;;;;0.80;0.40;;;19.60;45.20;19.70;101735.00;;;;4941782;28;109956;-69
2023/05/18 09:21:11;;;;;;;1.20;0.63;;;19.50;45.50;19.70;101709.00;;;;4941875;28;117528;-72
2023/05/18 09:23:41;;;;;;;1.08;0.50;;;19.60;45.70;19.80;101717.00;;;;4938917;28;117294;-68
2023/05/18 09:26:09;;;;;;;1.98;0.63;;;19.60;45.50;19.80;101720.00;;;;4943143;28;88929;-70
2023/05/18 09:28:37;;;;;;;4.10;0.43;;;19.60;45.50;19.80;101714.00;;;;4940957;28;87914;-69
2023/05/18 09:31:16;;;;;;;1.30;1.10;;;19.60;45.60;19.90;101708.00;;;;4941467;28;89391;-71
2023/05/18 09:33:44;;;;;;;2.22;0.70;;;19.70;44.00;20.10;101714.00;;;;4944391;28;101408;-69
2023/05/18 09:36:11;;;;;;;2.65;0.60;;;19.80;44.60;20.20;101702.00;;;;4942638;28;87849;-69
2023/05/18 09:38:44;;;;;;;1.92;0.47;;;19.90;43.00;20.30;101706.00;;;;4928169;28;88004;-69
2023/05/18 09:41:12;;;;;;;0.60;0.50;;;20.00;43.10;20.50;101704.00;;;;4939037;28;88221;-68
2023/05/18 09:43:39;;;;;;;0.82;0.77;;;20.10;43.30;20.70;101701.00;;;;4942823;28;89075;-70
2023/05/18 09:46:09;;;;;;;3.20;1.08;;;20.30;43.00;20.70;101709.00;;;;4947927;28;87810;-71
2023/05/18 09:48:37;;;;;;;1.48;0.32;;;20.40;42.50;20.70;101708.00;;;;4941718;28;99870;-69
2023/05/18 09:51:06;;;;;;;1.75;0.80;;;20.40;41.90;20.60;101706.00;;;;4939830;28;90891;-71
2023/05/18 09:53:36;;;;;;;0.38;0.35;;;20.30;42.10;20.40;101695.00;;;;4939498;28;102807;-74
2023/05/18 09:56:08;;;;;;;0.88;0.57;;;20.20;42.80;20.30;101709.00;;;;4941392;28;88670;-71
2023/05/18 09:58:34;;;;;;;2.08;0.88;;;20.00;42.90;20.30;101711.00;;;;4942001;28;88053;-70
2023/05/18 10:01:01;;;;;;;1.30;0.52;;;20.00;43.70;20.40;101706.00;;;;4939693;28;88226;-69
2023/05/18 10:03:34;;;;;;;2.38;0.85;;;20.10;43.60;20.60;101709.00;;;;4928078;28;89027;-69
2023/05/18 10:06:09;;;;;;;0.63;0.63;;;20.20;43.50;20.70;101701.00;;;;4946457;28;87876;-69
2023/05/18 10:08:36;;;;;;;1.35;0.60;;;20.30;42.50;20.60;101705.00;;;;4945311;28;87083;-69
2023/05/18 10:11:02;;;;;;;1.17;1.02;;;20.30;41.80;20.40;101699.00;;;;4944815;28;89214;-69
2023/05/18 10:13:30;;;;;;;3.03;0.35;;;20.10;42.60;20.40;101701.00;;;;4946548;28;87940;-69
2023/05/18 10:16:04;;;;;;;1.08;0.68;;;20.10;42.90;20.80;101707.00;;;;4945377;28;88821;-71
2023/05/18 10:18:34;;;;;;;1.90;0.93;;;20.30;43.10;21.00;101709.00;;;;4943379;28;100531;-71
2023/05/18 10:21:03;;;;;;;0.50;0.50;;;20.50;41.80;21.10;101701.00;;;;4948778;28;90189;-72
2023/05/18 10:23:34;;;;;;;0.70;0.70;;;20.60;41.40;21.10;101685.00;;;;4941987;28;109706;-71
2023/05/18 10:26:06;;;;;;;0.63;0.57;;;20.70;41.10;21.00;101700.00;;;;4943714;28;87686;-71
2023/05/18 10:28:43;;;;;;;2.38;0.65;;;20.60;40.90;21.20;101696.00;;;;4945312;28;87812;-72
2023/05/18 10:31:09;;;;;;;0.45;0.45;;;20.70;41.60;21.60;101705.00;;;;4926471;28;88870;-72
2023/05/18 10:33:36;;;;;;;1.75;0.82;;;21.00;41.30;21.70;101694.00;;;;4943867;28;88868;-75
2023/05/18 10:36:04;;;;;;;1.05;0.95;;;21.20;39.70;21.50;101695.00;;;;4942333;28;89045;-73
2023/05/18 10:38:32;;;;;;;2.75;0.88;;;21.20;40.10;21.50;101697.00;;;;4934391;28;89041;-74
2023/05/18 10:40:59;;;;;;;1.40;0.52;;;21.10;40.90;21.70;101698.00;;;;4937234;28;89127;-72
2023/05/18 10:43:26;;;;;;;4.15;1.02;;;21.20;40.80;21.80;101705.00;;;;4922525;27;88847;-73
2023/05/18 10:45:58;;;;;;;0.88;0.50;;;21.30;40.30;21.70;101700.00;;;;4947345;28;89549;-72
2023/05/18 10:48:25;;;;;;;2.75;1.25;;;21.30;40.10;21.80;101693.00;;;;4938917;28;87873;-71
2023/05/18 10:50:54;;;;;;;0.63;0.60;;;21.40;40.10;21.80;101698.00;;;;4941801;28;87935;-72
2023/05/18 10:53:26;;;;;;;0.82;0.75;;;21.40;40.10;21.60;101686.00;;;;4944108;28;103736;-71
2023/05/18 10:55:52;;;;;;;0.68;0.68;;;21.30;39.30;21.40;101686.00;;;;4942830;28;87928;-71